Time;durP1;ratioP1;P1;durP2;ratioP2;P2;SDS_P1;SDS_P2;PMS_P1;PMS_P2;Temp;Humidity;BMP_temperature;BMP_pressure;BME280_temperature;BME280_humidity;BME280_pressure;Samples;Min_cycle;Max_cycle;Signal;HPM_P1;HPM_P2
2023/10/20 00:01:52;;;;;;;13.90;3.72;;;13.00;99.90;;;12.20;100.00;97478.75;4153304;28;20058;-73
2023/10/20 00:03:53;;;;;;;11.38;4.90;;;12.90;99.90;;;12.22;100.00;97489.84;4135808;28;20038;-73
2023/10/20 00:05:56;;;;;;;12.73;3.95;;;12.90;99.90;;;12.16;100.00;97481.06;4153007;28;20057;-73
2023/10/20 00:07:57;;;;;;;8.68;3.83;;;12.90;99.90;;;12.13;100.00;97486.03;4153043;28;20030;-73
2023/10/20 00:09:59;;;;;;;10.77;4.07;;;12.80;99.90;;;12.06;100.00;97474.88;4163043;28;20033;-73
2023/10/20 00:12:00;;;;;;;9.82;2.85;;;12.80;99.90;;;12.05;100.00;97474.06;4152757;28;20042;-73
2023/10/20 00:14:01;;;;;;;12.70;2.97;;;12.80;99.90;;;12.03;100.00;97476.16;4152673;28;20025;-74
2023/10/20 00:16:03;;;;;;;8.18;3.47;;;12.80;99.90;;;12.00;100.00;97479.28;4152790;28;20026;-73
2023/10/20 00:18:04;;;;;;;11.18;3.30;;;12.70;99.90;;;11.94;100.00;97468.91;4152819;28;20030;-73
2023/10/20 00:20:06;;;;;;;10.70;3.75;;;12.70;99.90;;;11.91;100.00;97475.47;4149848;28;20017;-73
2023/10/20 00:22:07;;;;;;;10.30;3.50;;;12.60;99.90;;;11.86;100.00;97470.09;4169065;28;20108;-73
2023/10/20 00:24:08;;;;;;;11.48;3.90;;;12.60;99.90;;;11.84;100.00;97472.19;4169028;28;20056;-73
2023/10/20 00:26:09;;;;;;;10.80;2.92;;;12.60;99.90;;;11.83;100.00;97472.41;4169261;28;20071;-73
2023/10/20 00:28:10;;;;;;;8.63;2.88;;;12.50;99.90;;;11.80;100.00;97465.78;4169087;28;20029;-73
2023/10/20 00:30:11;;;;;;;6.40;2.22;;;12.50;99.90;;;11.76;100.00;97459.41;4151043;28;20065;-73
2023/10/20 00:32:12;;;;;;;10.02;3.25;;;12.50;99.90;;;11.77;100.00;97461.00;4169071;28;20044;-74
2023/10/20 00:34:13;;;;;;;7.18;2.40;;;12.50;99.90;;;11.72;100.00;97446.94;4168812;28;20366;-74
2023/10/20 00:36:13;;;;;;;7.10;2.40;;;12.50;99.90;;;11.74;100.00;97448.28;4169043;28;20052;-73
2023/10/20 00:38:14;;;;;;;16.20;3.17;;;12.50;99.90;;;11.69;100.00;97442.91;4168934;28;20018;-73
2023/10/20 00:40:15;;;;;;;5.68;2.17;;;12.50;99.90;;;11.71;100.00;97445.34;4156635;28;20029;-74
2023/10/20 00:42:16;;;;;;;5.40;2.00;;;12.50;99.90;;;11.70;100.00;97439.25;4134970;28;20038;-73
2023/10/20 00:44:17;;;;;;;7.78;2.10;;;12.40;99.90;;;11.72;100.00;97442.44;4134881;28;20034;-73
2023/10/20 00:46:19;;;;;;;13.30;2.95;;;12.40;99.90;;;11.70;100.00;97433.19;4160364;28;20493;-74
2023/10/20 00:48:20;;;;;;;10.15;2.55;;;12.40;99.90;;;11.68;100.00;97430.75;4139152;28;20038;-74
2023/10/20 00:50:21;;;;;;;11.15;2.45;;;12.40;99.90;;;11.65;100.00;97429.38;4133450;28;20053;-73
2023/10/20 00:52:23;;;;;;;5.50;1.92;;;12.30;99.90;;;11.64;100.00;97432.28;4152464;28;20375;-73
2023/10/20 00:54:24;;;;;;;7.60;2.22;;;12.40;99.90;;;11.64;100.00;97429.66;4143500;28;20106;-73
2023/10/20 00:56:27;;;;;;;13.65;2.55;;;12.30;99.90;;;11.65;100.00;97431.22;4156948;28;20394;-73
2023/10/20 00:58:28;;;;;;;9.10;2.00;;;12.40;99.90;;;11.64;100.00;97417.25;4134941;28;20070;-74
2023/10/20 01:00:29;;;;;;;7.68;2.33;;;12.40;99.90;;;11.65;100.00;97410.09;4145621;28;20037;-73
2023/10/20 01:02:30;;;;;;;5.05;1.73;;;12.40;99.90;;;11.64;100.00;97411.16;4152272;28;20448;-73
2023/10/20 01:04:31;;;;;;;13.82;3.08;;;12.40;99.90;;;11.62;100.00;97400.03;4152487;28;20397;-74
2023/10/20 01:06:33;;;;;;;7.53;2.50;;;12.40;99.90;;;11.61;100.00;97388.69;4134637;28;20034;-73
2023/10/20 01:08:33;;;;;;;7.40;2.13;;;12.40;99.90;;;11.61;100.00;97385.25;4135595;28;20517;-73
2023/10/20 01:10:34;;;;;;;7.65;2.45;;;12.40;99.90;;;11.58;100.00;97386.53;4142612;28;20030;-73
2023/10/20 01:12:36;;;;;;;5.35;2.33;;;12.30;99.90;;;11.59;100.00;97395.22;4134610;28;20053;-74
2023/10/20 01:14:37;;;;;;;7.07;2.45;;;12.30;99.90;;;11.53;100.00;97390.94;4151875;28;20029;-73
2023/10/20 01:16:37;;;;;;;11.20;2.67;;;12.30;99.90;;;11.51;100.00;97388.56;4152294;28;20025;-73
2023/10/20 01:18:38;;;;;;;5.57;2.33;;;12.30;99.90;;;11.48;100.00;97391.69;4148484;28;20571;-73
2023/10/20 01:20:39;;;;;;;4.78;2.33;;;12.20;99.90;;;11.44;100.00;97377.34;4157102;28;20122;-73
2023/10/20 01:22:41;;;;;;;9.38;2.63;;;12.20;99.90;;;11.44;100.00;97381.88;4152218;28;20029;-73
2023/10/20 01:24:42;;;;;;;11.00;3.05;;;12.20;99.90;;;11.38;100.00;97377.56;4152231;28;20026;-73
2023/10/20 01:26:43;;;;;;;3.53;2.20;;;12.10;99.90;;;11.37;100.00;97379.38;4152164;28;20523;-74
2023/10/20 01:28:44;;;;;;;12.85;2.25;;;12.10;99.90;;;11.35;100.00;97378.03;4153948;28;20451;-73
2023/10/20 01:30:45;;;;;;;9.25;2.38;;;12.00;99.90;;;11.31;100.00;97374.28;4153802;28;20030;-74
2023/10/20 01:32:46;;;;;;;8.65;2.28;;;12.00;99.90;;;11.26;100.00;97369.72;4134775;28;20462;-73
2023/10/20 01:34:47;;;;;;;6.57;2.03;;;12.00;99.90;;;11.25;100.00;97369.97;4151962;28;20037;-73
2023/10/20 01:36:48;;;;;;;9.75;2.00;;;12.00;99.90;;;11.24;100.00;97363.09;4152039;28;20026;-74
2023/10/20 01:38:49;;;;;;;9.07;2.42;;;12.00;99.90;;;11.23;100.00;97361.50;4153358;28;20481;-73
2023/10/20 01:40:49;;;;;;;10.60;2.17;;;12.00;99.90;;;11.22;100.00;97363.34;4152076;28;20076;-73
2023/10/20 01:42:50;;;;;;;9.32;2.70;;;12.00;99.90;;;11.20;100.00;97357.50;4152002;28;20033;-73
2023/10/20 01:44:51;;;;;;;7.03;2.10;;;12.00;99.90;;;11.19;100.00;97358.53;4151857;28;20026;-74
2023/10/20 01:46:52;;;;;;;8.15;1.88;;;12.00;99.90;;;11.16;100.00;97358.22;4134589;28;20037;-74
2023/10/20 01:48:53;;;;;;;9.90;1.98;;;11.90;99.90;;;11.13;100.00;97358.72;4152062;28;20029;-73
2023/10/20 01:50:54;;;;;;;7.95;1.60;;;11.90;99.90;;;11.07;100.00;97356.00;4152002;28;20091;-73
2023/10/20 01:52:55;;;;;;;9.15;1.88;;;11.90;99.90;;;11.00;100.00;97355.38;4151991;28;20484;-73
2023/10/20 01:54:58;;;;;;;2.97;1.23;;;11.80;99.90;;;10.97;100.00;97358.47;4151812;28;20030;-73
2023/10/20 01:56:59;;;;;;;5.13;1.48;;;11.70;99.90;;;10.92;100.00;97360.25;4154985;28;20152;-73
2023/10/20 01:59:00;;;;;;;4.18;1.70;;;11.70;99.90;;;10.88;100.00;97357.28;4151279;28;20022;-73
2023/10/20 02:01:01;;;;;;;5.03;1.40;;;11.70;99.90;;;10.82;100.00;97347.69;4171281;28;20488;-74
2023/10/20 02:03:02;;;;;;;8.40;2.55;;;11.60;99.90;;;10.82;100.00;97347.69;4153825;28;20100;-74
2023/10/20 02:05:03;;;;;;;5.85;1.40;;;11.60;99.90;;;10.78;100.00;97354.47;4171082;28;20037;-73
2023/10/20 02:07:04;;;;;;;5.40;1.42;;;11.50;99.90;;;10.76;100.00;97351.28;4153490;28;20041;-74
2023/10/20 02:09:06;;;;;;;2.25;1.02;;;11.50;99.90;;;10.74;100.00;97345.47;4171233;28;20081;-73
2023/10/20 02:11:08;;;;;;;3.55;1.10;;;11.50;99.90;;;10.70;100.00;97346.97;4170927;28;20041;-73
2023/10/20 02:13:10;;;;;;;9.38;1.48;;;11.50;99.90;;;10.64;100.00;97339.22;4153303;28;20105;-73
2023/10/20 02:15:11;;;;;;;5.00;1.33;;;11.50;99.90;;;10.66;100.00;97353.78;4170713;28;20025;-73
2023/10/20 02:17:11;;;;;;;3.00;1.45;;;11.40;99.90;;;10.64;100.00;97344.50;4171036;28;20034;-74
2023/10/20 02:19:14;;;;;;;6.00;0.93;;;11.40;99.90;;;10.61;100.00;97356.31;4170947;28;20072;-74
2023/10/20 02:21:15;;;;;;;2.40;0.93;;;11.40;99.90;;;10.60;100.00;97348.66;4155431;28;20030;-74
2023/10/20 02:23:16;;;;;;;8.65;1.15;;;11.40;99.90;;;10.60;100.00;97346.81;4148463;28;20555;-73
2023/10/20 02:25:17;;;;;;;5.53;0.80;;;11.40;99.90;;;10.59;100.00;97347.84;4170953;28;20037;-73
2023/10/20 02:27:18;;;;;;;4.00;0.95;;;11.30;99.90;;;10.58;100.00;97351.50;4170875;28;20025;-73
2023/10/20 02:29:19;;;;;;;5.28;1.10;;;11.40;99.90;;;10.60;100.00;97343.38;4170477;28;20034;-74
2023/10/20 02:31:20;;;;;;;3.88;0.85;;;11.30;99.90;;;10.68;100.00;97345.63;4170810;28;20374;-73
2023/10/20 02:33:21;;;;;;;4.50;0.90;;;11.40;99.90;;;10.71;100.00;97345.94;4170685;28;20103;-73
2023/10/20 02:35:22;;;;;;;4.30;1.25;;;11.40;99.90;;;10.70;100.00;97352.25;4153297;28;20536;-73
2023/10/20 02:37:23;;;;;;;3.97;0.63;;;11.40;99.90;;;10.66;100.00;97343.25;4170781;28;20025;-74
2023/10/20 02:39:23;;;;;;;4.53;1.10;;;11.40;99.90;;;10.64;100.00;97347.94;4170748;28;20484;-73
2023/10/20 02:41:24;;;;;;;8.65;1.10;;;11.50;99.90;;;10.74;100.00;97344.66;4153126;28;20026;-74
2023/10/20 02:43:26;;;;;;;10.85;1.40;;;11.50;99.90;;;10.84;100.00;97344.84;4170648;28;20029;-73
2023/10/20 02:45:27;;;;;;;2.83;1.13;;;11.60;99.90;;;10.95;100.00;97347.38;4152677;28;20032;-73
2023/10/20 02:47:28;;;;;;;6.53;1.23;;;11.70;99.90;;;11.03;100.00;97335.63;4170632;28;20021;-73
2023/10/20 02:49:28;;;;;;;4.43;1.25;;;11.70;99.90;;;11.14;100.00;97341.84;4170521;28;20397;-73
2023/10/20 02:51:29;;;;;;;6.97;0.88;;;11.80;99.90;;;11.19;100.00;97334.81;4152846;28;20023;-74
2023/10/20 02:53:30;;;;;;;4.70;1.08;;;11.90;99.90;;;11.22;100.00;97336.97;4170281;28;20436;-73
2023/10/20 02:55:31;;;;;;;5.63;1.08;;;11.90;99.90;;;11.31;100.00;97332.84;4153058;28;20026;-74
2023/10/20 02:57:32;;;;;;;2.90;1.00;;;12.00;99.90;;;11.29;100.00;97326.25;4169067;28;20056;-73
2023/10/20 02:59:33;;;;;;;4.10;1.00;;;12.00;99.90;;;11.24;100.00;97324.31;4170091;28;20025;-74
2023/10/20 03:01:34;;;;;;;2.63;0.80;;;12.00;99.90;;;11.15;100.00;97319.69;4170293;28;20029;-73
2023/10/20 03:03:36;;;;;;;4.55;1.25;;;11.90;99.90;;;11.04;100.00;97319.56;4170376;28;20030;-74
2023/10/20 03:05:38;;;;;;;3.35;1.55;;;11.80;99.90;;;10.94;100.00;97323.88;4152773;28;20033;-73
2023/10/20 03:07:39;;;;;;;8.63;1.88;;;11.70;99.90;;;10.85;100.00;97327.94;4170215;28;20021;-74
2023/10/20 03:09:40;;;;;;;5.40;1.33;;;11.70;99.90;;;10.77;100.00;97326.53;4170151;28;20033;-74
2023/10/20 03:11:41;;;;;;;3.03;1.13;;;11.60;99.90;;;10.76;100.00;97327.56;4169438;28;20050;-73
2023/10/20 03:13:41;;;;;;;10.48;1.70;;;11.60;99.90;;;10.73;100.00;97321.97;4170186;28;20029;-73
2023/10/20 03:15:44;;;;;;;5.15;1.50;;;11.50;99.90;;;10.72;100.00;97326.44;4170005;28;20504;-74
2023/10/20 03:17:44;;;;;;;5.68;1.45;;;11.50;99.90;;;10.68;100.00;97319.25;4156510;28;20022;-73
2023/10/20 03:19:45;;;;;;;3.78;1.00;;;11.50;99.90;;;10.60;100.00;97309.94;4162394;28;20041;-73
2023/10/20 03:21:47;;;;;;;13.13;1.60;;;11.40;99.90;;;10.63;100.00;97317.34;4136289;28;20030;-74
2023/10/20 03:23:48;;;;;;;5.47;1.00;;;11.40;99.90;;;10.62;100.00;97320.22;4153585;28;20072;-73
2023/10/20 03:25:49;;;;;;;4.75;1.08;;;11.40;99.90;;;10.62;100.00;97331.56;4136282;28;20029;-73
2023/10/20 03:27:50;;;;;;;2.42;1.00;;;11.40;99.90;;;10.58;100.00;97322.53;4136096;28;20435;-73
2023/10/20 03:29:51;;;;;;;4.30;1.13;;;11.40;99.90;;;10.59;100.00;97326.78;4135991;28;20030;-74
2023/10/20 03:31:53;;;;;;;4.60;0.77;;;11.30;99.90;;;10.59;100.00;97334.69;4153557;28;20033;-73
2023/10/20 03:33:54;;;;;;;6.15;1.20;;;11.40;99.90;;;10.58;100.00;97330.44;4153219;28;20083;-73
2023/10/20 03:36:03;;;;;;;7.32;0.93;;;11.40;99.90;;;10.61;100.00;97337.06;4153361;28;20034;-74
2023/10/20 03:38:05;;;;;;;5.55;1.17;;;11.40;99.90;;;10.56;100.00;97332.53;4153465;28;20026;-74
2023/10/20 03:40:13;;;;;;;2.60;0.85;;;11.40;99.90;;;10.61;100.00;97335.22;4153412;28;20022;-73
2023/10/20 03:42:14;;;;;;;6.53;1.17;;;11.40;99.90;;;10.65;100.00;97340.81;4153258;28;20100;-74
2023/10/20 03:44:16;;;;;;;4.68;1.23;;;11.40;99.90;;;10.65;100.00;97339.00;4153224;28;20105;-73
2023/10/20 03:46:18;;;;;;;3.03;1.13;;;11.40;99.90;;;10.66;100.00;97337.97;4153326;28;20073;-73
2023/10/20 03:48:19;;;;;;;6.85;1.60;;;11.40;99.90;;;10.68;100.00;97349.06;4135885;28;20031;-73
2023/10/20 03:50:20;;;;;;;6.38;1.92;;;11.40;99.90;;;10.70;100.00;97344.34;4153045;28;20022;-73
2023/10/20 03:52:23;;;;;;;12.55;1.50;;;11.50;99.90;;;10.67;100.00;97339.53;4153375;28;20026;-73
2023/10/20 03:54:24;;;;;;;7.95;1.30;;;11.50;99.90;;;10.67;100.00;97342.19;4153279;28;20455;-73
2023/10/20 03:56:25;;;;;;;6.43;1.48;;;11.50;99.90;;;10.66;100.00;97335.34;4165163;28;20042;-73
2023/10/20 03:58:29;;;;;;;9.65;1.85;;;11.40;99.90;;;10.61;100.00;97318.59;4169400;28;20388;-74
2023/10/20 04:00:31;;;;;;;8.85;1.38;;;11.40;99.90;;;10.62;100.00;97326.28;4169058;28;20029;-74
2023/10/20 04:02:32;;;;;;;6.90;2.17;;;11.40;99.90;;;10.60;100.00;97327.56;4169317;28;20021;-73
2023/10/20 04:04:33;;;;;;;9.60;1.83;;;11.40;99.90;;;10.57;100.00;97323.59;4140182;28;20037;-74
2023/10/20 04:06:35;;;;;;;2.92;1.67;;;11.40;99.90;;;10.52;100.00;97316.38;4152894;28;20030;-73
2023/10/20 04:08:36;;;;;;;3.20;1.10;;;11.30;99.90;;;10.50;100.00;97307.13;4152964;28;20034;-74
2023/10/20 04:10:37;;;;;;;8.27;1.65;;;11.30;99.90;;;10.50;100.00;97307.13;4152831;28;20378;-74
2023/10/20 04:12:39;;;;;;;8.77;2.30;;;11.30;99.90;;;10.49;100.00;97314.22;4152695;28;20057;-73
2023/10/20 04:14:41;;;;;;;4.40;1.38;;;11.30;99.90;;;10.45;100.00;97318.34;4152509;28;20034;-73
2023/10/20 04:16:42;;;;;;;3.83;1.08;;;11.20;99.90;;;10.45;100.00;97314.94;4135507;28;20030;-74
2023/10/20 04:18:44;;;;;;;3.97;0.98;;;11.20;99.90;;;10.44;100.00;97305.44;4156515;28;20021;-74
2023/10/20 04:20:48;;;;;;;5.63;1.38;;;11.20;99.90;;;10.46;100.00;97309.44;4139583;28;20374;-73
2023/10/20 04:22:49;;;;;;;1.80;1.08;;;11.20;99.90;;;10.43;100.00;97301.19;4151789;28;20083;-74
2023/10/20 04:24:50;;;;;;;5.93;1.13;;;11.20;99.90;;;10.44;100.00;97310.72;4152754;28;20040;-73
2023/10/20 04:26:50;;;;;;;3.13;0.93;;;11.20;99.90;;;10.36;100.00;97300.56;4152794;28;20034;-74
2023/10/20 04:29:08;;;;;;;5.25;1.45;;;11.20;99.90;;;10.42;100.00;97320.69;4152530;28;20052;-74
2023/10/20 04:54:07;;;;;;;4.82;1.10;;;11.60;99.90;;;10.87;100.00;97324.03;4152463;28;20026;-73
2023/10/20 04:58:17;;;;;;;4.45;1.10;;;11.60;99.90;;;10.91;100.00;97322.53;4168621;28;20026;-73
2023/10/20 05:02:39;;;;;;;7.93;1.50;;;11.70;99.90;;;11.01;100.00;97325.31;4167689;28;20094;-74
2023/10/20 05:04:43;;;;;;;6.57;1.30;;;11.70;99.90;;;11.05;100.00;97320.38;4168679;28;20030;-74
2023/10/20 05:06:44;;;;;;;6.68;2.13;;;11.80;99.90;;;11.08;100.00;97315.38;4148393;28;20514;-73
2023/10/20 05:08:46;;;;;;;9.63;2.75;;;11.80;99.90;;;11.13;100.00;97312.03;4151069;28;20037;-73
2023/10/20 05:10:49;;;;;;;8.45;2.38;;;11.80;99.90;;;11.15;100.00;97306.50;4152330;28;20164;-74
2023/10/20 05:12:51;;;;;;;4.47;2.13;;;11.90;99.90;;;11.19;100.00;97310.25;4151981;28;20104;-73
2023/10/20 05:14:52;;;;;;;18.45;2.92;;;11.90;99.90;;;11.23;100.00;97311.38;4154726;28;20041;-74
2023/10/20 05:16:55;;;;;;;6.53;2.83;;;11.90;99.90;;;11.27;100.00;97309.84;4152390;28;20018;-73
2023/10/20 05:18:56;;;;;;;5.50;2.08;;;12.00;99.90;;;11.23;100.00;97314.78;4158133;28;20393;-73
2023/10/20 05:21:02;;;;;;;5.05;2.08;;;12.00;99.90;;;11.30;100.00;97317.25;4138007;28;20037;-74
2023/10/20 05:23:04;;;;;;;6.10;1.80;;;12.00;99.90;;;11.30;100.00;97311.97;4154918;28;20134;-74
2023/10/20 05:25:06;;;;;;;4.53;1.70;;;12.00;99.90;;;11.30;100.00;97312.78;4151076;28;20100;-73
2023/10/20 05:27:07;;;;;;;4.55;2.20;;;12.00;99.90;;;11.28;100.00;97311.44;4168480;28;20033;-74
2023/10/20 05:29:08;;;;;;;14.23;3.20;;;12.00;99.90;;;11.24;100.00;97297.13;4168122;28;20025;-74
2023/10/20 05:31:09;;;;;;;8.10;2.47;;;12.00;99.90;;;11.25;100.00;97291.63;4150949;28;20022;-74
2023/10/20 05:33:12;;;;;;;8.00;3.47;;;12.00;99.90;;;11.24;100.00;97302.41;4167067;28;20025;-74
2023/10/20 05:35:13;;;;;;;7.45;3.10;;;12.00;99.90;;;11.25;100.00;97298.72;4170796;28;20052;-74
2023/10/20 05:37:14;;;;;;;5.10;2.97;;;12.00;99.90;;;11.27;100.00;97304.56;4171010;28;20552;-74
2023/10/20 05:39:15;;;;;;;6.10;2.97;;;12.00;99.90;;;11.30;100.00;97310.16;4155129;28;20064;-74
2023/10/20 05:41:16;;;;;;;10.55;3.58;;;12.00;99.90;;;11.32;100.00;97308.06;4158890;28;20025;-74
2023/10/20 05:43:17;;;;;;;10.18;3.55;;;12.10;99.90;;;11.35;100.00;97315.47;4155078;28;20034;-74
2023/10/20 05:45:20;;;;;;;7.13;3.95;;;12.10;99.90;;;11.36;100.00;97300.44;4137448;28;20037;-74
2023/10/20 05:47:21;;;;;;;9.98;4.85;;;12.10;99.90;;;11.36;100.00;97295.97;4158462;28;20036;-74
2023/10/20 05:49:22;;;;;;;12.05;4.93;;;12.10;99.90;;;11.39;100.00;97305.25;4171623;28;20029;-74
2023/10/20 05:51:23;;;;;;;9.48;4.18;;;12.10;99.90;;;11.35;100.00;97299.66;4171378;28;20038;-74
2023/10/20 05:53:25;;;;;;;8.23;4.30;;;12.10;99.90;;;11.37;100.00;97302.06;4153712;28;20040;-73
2023/10/20 05:55:26;;;;;;;7.00;3.28;;;12.10;99.90;;;11.37;100.00;97307.34;4153940;28;20062;-74
2023/10/20 05:57:27;;;;;;;6.35;3.13;;;12.10;99.90;;;11.36;100.00;97303.09;4171465;28;20017;-74
2023/10/20 05:59:28;;;;;;;7.10;3.38;;;12.10;99.90;;;11.38;100.00;97309.72;4153561;28;20026;-74
2023/10/20 06:01:29;;;;;;;9.00;4.38;;;12.10;99.90;;;11.37;100.00;97308.13;4170839;28;20036;-74
2023/10/20 06:03:30;;;;;;;10.77;5.50;;;12.10;99.90;;;11.45;100.00;97304.25;4137656;28;20366;-73
2023/10/20 06:05:31;;;;;;;9.02;5.50;;;12.20;99.90;;;11.55;100.00;97305.19;4155094;28;20026;-73
2023/10/20 06:07:32;;;;;;;8.05;4.90;;;12.20;99.90;;;11.58;100.00;97299.44;4154816;28;20033;-74
2023/10/20 06:09:33;;;;;;;13.25;5.13;;;12.30;99.90;;;11.64;100.00;97300.28;4154759;28;20037;-74
2023/10/20 06:11:38;;;;;;;9.43;4.95;;;12.40;99.90;;;11.60;100.00;97307.91;4154559;28;20049;-74
2023/10/20 06:13:38;;;;;;;;;;;12.30;99.90;;;11.49;100.00;97305.38;4155147;28;20089;-74
2023/10/20 06:15:39;;;;;;;12.20;4.65;;;12.30;99.90;;;11.52;100.00;97313.59;4137319;28;19914;-74
2023/10/20 06:17:41;;;;;;;12.88;4.78;;;12.30;99.90;;;11.53;100.00;97309.91;4154771;28;20028;-74
2023/10/20 06:19:41;;;;;;;9.98;5.45;;;12.30;99.90;;;11.53;100.00;97306.47;4163589;28;20130;-73
2023/10/20 06:21:42;;;;;;;10.38;4.40;;;12.30;99.90;;;11.56;100.00;97311.25;4137586;28;20030;-74
2023/10/20 06:23:44;;;;;;;12.60;5.50;;;12.30;99.90;;;11.57;100.00;97311.03;4159332;28;20092;-74
2023/10/20 06:25:46;;;;;;;33.05;6.70;;;12.30;99.90;;;11.63;100.00;97319.78;4158701;28;20404;-74
2023/10/20 06:27:47;;;;;;;21.13;5.95;;;12.30;99.90;;;11.66;100.00;97321.94;4154543;28;20097;-73
2023/10/20 06:29:54;;;;;;;18.65;5.03;;;12.40;99.90;;;11.68;100.00;97319.84;4154412;28;20383;-74
2023/10/20 06:32:09;;;;;;;14.88;5.03;;;12.40;99.90;;;11.69;100.00;97321.47;4154350;28;20105;-74
2023/10/20 06:34:23;;;;;;;7.68;4.03;;;12.40;99.90;;;11.72;100.00;97321.00;4138745;28;20029;-74
2023/10/20 06:36:26;;;;;;;37.45;6.72;;;12.40;99.90;;;11.75;100.00;97327.63;4154478;28;20029;-74
2023/10/20 06:38:44;;;;;;;18.65;5.28;;;12.50;99.90;;;11.77;100.00;97326.31;4136829;28;20030;-74
2023/10/20 06:40:47;;;;;;;33.70;5.72;;;12.50;99.90;;;11.79;100.00;97318.19;4154356;28;20026;-74
2023/10/20 06:42:48;;;;;;;26.63;6.32;;;12.50;99.90;;;11.82;100.00;97322.97;4154433;28;20037;-74
2023/10/20 06:44:49;;;;;;;10.00;4.53;;;12.60;99.90;;;11.86;100.00;97322.22;4154075;28;20392;-74
2023/10/20 06:46:51;;;;;;;9.35;4.38;;;12.60;99.90;;;11.92;100.00;97323.84;4153383;28;20040;-74
2023/10/20 06:48:51;;;;;;;7.32;4.13;;;12.60;99.90;;;11.96;100.00;97321.53;4154243;28;20026;-74
2023/10/20 06:50:53;;;;;;;7.20;4.65;;;12.70;99.90;;;11.95;100.00;97315.44;4154279;28;20030;-74
2023/10/20 06:52:54;;;;;;;29.77;6.28;;;12.70;99.90;;;11.98;100.00;97328.16;4136902;28;20022;-74
2023/10/20 06:54:56;;;;;;;13.77;4.88;;;12.70;99.90;;;12.00;100.00;97317.34;4163171;28;20075;-74
2023/10/20 06:56:59;;;;;;;12.40;5.28;;;12.70;99.90;;;12.04;100.00;97323.72;4154099;28;20019;-73
2023/10/20 06:59:00;;;;;;;60.85;8.23;;;12.80;99.90;;;12.06;100.00;97327.72;4155072;28;20394;-74
2023/10/20 07:01:07;;;;;;;58.90;7.68;;;12.80;99.90;;;12.07;100.00;97334.59;4162990;28;20037;-74
2023/10/20 07:03:08;;;;;;;14.43;5.68;;;12.80;99.90;;;12.10;100.00;97325.38;4169652;28;20527;-74
2023/10/20 07:05:08;;;;;;;21.60;5.47;;;12.80;99.90;;;12.15;100.00;97336.81;4137051;28;20038;-74
2023/10/20 07:07:13;;;;;;;10.88;4.85;;;12.80;99.90;;;12.17;100.00;97345.28;4163098;28;20529;-74
2023/10/20 07:09:14;;;;;;;7.63;4.28;;;12.90;99.90;;;12.23;100.00;97347.97;4164445;28;20026;-74
2023/10/20 07:11:15;;;;;;;11.73;5.45;;;12.90;99.90;;;12.27;100.00;97354.34;4155854;28;20058;-74
2023/10/20 07:13:17;;;;;;;8.93;5.30;;;13.00;99.90;;;12.32;100.00;97354.41;4136564;28;20018;-73
2023/10/20 07:15:18;;;;;;;7.13;4.20;;;13.00;99.90;;;12.37;100.00;97349.16;4137872;28;20033;-74
2023/10/20 07:17:19;;;;;;;7.25;4.03;;;13.10;99.90;;;12.40;100.00;97359.22;4159767;28;20025;-74
2023/10/20 07:19:20;;;;;;;7.70;5.10;;;13.10;99.90;;;12.45;100.00;97354.81;4162105;28;20076;-73
2023/10/20 07:21:21;;;;;;;8.82;4.57;;;13.20;99.90;;;12.50;100.00;97364.63;4136183;28;20031;-74
2023/10/20 07:23:22;;;;;;;7.75;4.35;;;13.20;99.90;;;12.48;100.00;97364.88;4153738;28;20068;-74
2023/10/20 07:25:22;;;;;;;9.23;4.70;;;13.20;99.90;;;12.54;100.00;97378.94;4155998;28;20026;-74
2023/10/20 07:27:23;;;;;;;13.43;5.10;;;13.20;99.90;;;12.58;100.00;97377.38;4157102;28;20161;-74
2023/10/20 07:29:24;;;;;;;9.57;4.80;;;13.30;99.90;;;12.55;100.00;97376.03;4152155;28;20049;-74
2023/10/20 07:31:26;;;;;;;8.18;4.22;;;13.30;99.90;;;12.60;100.00;97388.53;4136071;28;20097;-74
2023/10/20 07:33:27;;;;;;;11.68;5.13;;;13.30;99.90;;;12.59;100.00;97390.34;4153519;28;20473;-74
2023/10/20 07:35:27;;;;;;;11.15;4.32;;;13.30;99.90;;;12.62;100.00;97387.22;4156030;28;20033;-74
2023/10/20 07:37:29;;;;;;;7.20;4.07;;;13.30;99.90;;;12.65;100.00;97393.84;4153857;28;20030;-74
2023/10/20 07:39:30;;;;;;;6.88;4.15;;;13.40;99.90;;;12.64;100.00;97393.03;4159021;28;20393;-74
2023/10/20 07:41:30;;;;;;;7.97;4.28;;;13.40;99.90;;;12.67;100.00;97402.31;4135866;28;20034;-74
2023/10/20 07:43:31;;;;;;;9.70;4.32;;;13.40;99.90;;;12.69;100.00;97406.31;4155890;28;20100;-74
2023/10/20 07:45:41;;;;;;;10.68;4.47;;;13.40;99.90;;;12.71;100.00;97398.94;4154104;28;20025;-74
2023/10/20 07:47:42;;;;;;;8.15;4.35;;;13.40;99.90;;;12.71;100.00;97404.22;4136015;28;20026;-74
2023/10/20 07:49:42;;;;;;;12.48;4.88;;;13.50;99.90;;;12.74;100.00;97411.66;4135891;28;20025;-75
2023/10/20 07:51:44;;;;;;;11.68;4.35;;;13.50;99.90;;;12.75;100.00;97410.59;4153102;28;20030;-74
2023/10/20 07:53:45;;;;;;;8.65;3.90;;;13.50;99.90;;;12.77;100.00;97403.22;4152972;28;20032;-74
2023/10/20 07:55:45;;;;;;;9.02;3.40;;;13.50;99.90;;;12.81;100.00;97406.16;4159562;28;20030;-77
2023/10/20 07:57:46;;;;;;;11.95;4.05;;;13.60;99.90;;;12.86;100.00;97416.78;4159593;28;20018;-75
2023/10/20 07:59:47;;;;;;;9.52;4.10;;;13.50;99.90;;;12.87;100.00;97415.75;4153116;28;20079;-75
2023/10/20 08:01:48;;;;;;;6.13;3.67;;;13.60;99.90;;;12.90;100.00;97415.25;4152994;28;20029;-76
2023/10/20 08:03:49;;;;;;;6.97;4.00;;;13.60;99.90;;;12.91;100.00;97414.19;4153111;28;20038;-74
2023/10/20 08:05:50;;;;;;;9.13;3.40;;;13.70;99.90;;;12.94;100.00;97426.09;4140844;28;20029;-75
2023/10/20 08:07:51;;;;;;;10.82;4.50;;;13.70;99.90;;;12.96;100.00;97421.38;4156812;28;20025;-75
2023/10/20 08:09:51;;;;;;;13.35;4.25;;;13.70;99.90;;;12.99;100.00;97428.81;4152897;28;20029;-75
2023/10/20 08:11:52;;;;;;;6.28;3.67;;;13.70;99.90;;;13.04;100.00;97434.13;4152939;28;20046;-76
2023/10/20 08:13:55;;;;;;;9.73;4.40;;;13.70;99.90;;;13.08;100.00;97435.25;4152674;28;20022;-75
2023/10/20 08:16:01;;;;;;;7.32;4.10;;;13.80;99.90;;;13.08;100.00;97441.34;4158770;28;20025;-76
2023/10/20 08:18:02;;;;;;;6.57;3.28;;;13.80;99.90;;;13.14;100.00;97445.63;4122704;28;20449;-74
2023/10/20 08:20:09;;;;;;;6.28;3.15;;;13.80;99.90;;;13.17;100.00;97442.47;4162621;28;20030;-76
2023/10/20 08:22:10;;;;;;;9.35;3.03;;;13.90;99.90;;;13.19;100.00;97448.31;4135849;28;20026;-76
2023/10/20 08:24:11;;;;;;;8.90;3.83;;;13.90;99.90;;;13.22;100.00;97447.81;4152704;28;20378;-76
2023/10/20 08:26:16;;;;;;;5.28;3.10;;;13.90;99.90;;;13.24;100.00;97450.19;4143127;28;20045;-76
2023/10/20 08:28:17;;;;;;;8.63;3.22;;;14.00;99.90;;;13.25;100.00;97460.56;4169244;28;20088;-76
2023/10/20 08:30:20;;;;;;;7.78;3.42;;;14.00;99.90;;;13.27;100.00;97453.16;4168795;28;20030;-76
2023/10/20 08:32:21;;;;;;;6.85;3.50;;;14.00;99.90;;;13.26;100.00;97448.88;4151578;28;20034;-76
2023/10/20 08:34:23;;;;;;;7.22;3.33;;;14.00;99.90;;;13.32;100.00;97458.47;4168385;28;20065;-76
2023/10/20 08:36:24;;;;;;;8.75;3.13;;;14.10;99.90;;;13.32;100.00;97453.16;4161693;28;20079;-76
2023/10/20 08:38:25;;;;;;;7.72;3.28;;;14.00;99.90;;;13.33;100.00;97464.56;4152601;28;20025;-76
2023/10/20 08:40:34;;;;;;;9.55;3.08;;;14.00;99.90;;;13.35;100.00;97461.69;4152488;28;20026;-76
2023/10/20 08:42:38;;;;;;;5.13;2.55;;;14.10;99.90;;;13.36;100.00;97472.00;4135292;28;20026;-76
2023/10/20 08:44:40;;;;;;;5.05;2.40;;;14.10;99.90;;;13.36;100.00;97466.72;4152642;28;20050;-76
2023/10/20 08:46:42;;;;;;;6.80;2.50;;;14.10;99.90;;;13.37;100.00;97470.16;4166063;28;20025;-76
2023/10/20 08:48:47;;;;;;;4.20;2.17;;;14.00;99.90;;;13.36;100.00;97464.06;4152553;28;20497;-76
2023/10/20 08:50:49;;;;;;;6.18;2.67;;;14.10;99.90;;;13.37;100.00;97467.50;4139253;28;20041;-75
2023/10/20 08:52:52;;;;;;;7.47;2.70;;;14.10;99.90;;;13.37;100.00;97465.66;4159293;28;20026;-75